Fort Leavenworth, Kansas
Current Conditions -  °F | °C
As of 6:53 AM on Sunday 21 Dec 2014 (Local Time) from KMCI Reporting Station
Overcast Overcast  
Wind Chill: 31°   Ceiling: 1300
Heat Index: 38°   Visibility: 8mi
Dew Point: 35°   Wind: 10mph
Humidity: 89%   Direction: 200°SSW
Pressure: 30.04"   Gusts: NA
Location:  39.34°N, 94.92°W
Report Text: KMCI 211253Z 20009KT 8SM OVC013 03/02 A3004 RMK AO2 SLP177 T00330017 $
Loading
Personal Weather Stations






























Interactive Weather Map New forecast layout! Learn more

10-Day Weather Forecast

Advertisements
Track Severe Weather on mobile